sensor_id;sensor_type;location;lat;lon;timestamp;P1;durP1;ratioP1;P2;durP2;ratioP2
39676;SDS011;27789;50.840;4.386;2022-12-05T00:00:52;87.25;;;36.58;;
39676;SDS011;27789;50.840;4.386;2022-12-05T00:03:19;75.80;;;36.58;;
39676;SDS011;27789;50.840;4.386;2022-12-05T00:05:44;83.55;;;39.35;;
39676;SDS011;27789;50.840;4.386;2022-12-05T00:08:10;80.03;;;36.83;;
39676;SDS011;27789;50.840;4.386;2022-12-05T00:10:36;79.78;;;35.80;;
39676;SDS011;27789;50.840;4.386;2022-12-05T00:13:02;76.82;;;35.55;;
39676;SDS011;27789;50.840;4.386;2022-12-05T00:15:28;84.68;;;34.97;;
39676;SDS011;27789;50.840;4.386;2022-12-05T00:17:54;77.40;;;32.75;;
39676;SDS011;27789;50.840;4.386;2022-12-05T00:20:19;84.78;;;34.63;;
39676;SDS011;27789;50.840;4.386;2022-12-05T00:22:45;69.38;;;35.80;;
39676;SDS011;27789;50.840;4.386;2022-12-05T00:25:11;70.05;;;32.72;;
39676;SDS011;27789;50.840;4.386;2022-12-05T00:27:37;75.57;;;33.17;;
39676;SDS011;27789;50.840;4.386;2022-12-05T00:30:02;65.78;;;30.83;;
39676;SDS011;27789;50.840;4.386;2022-12-05T00:32:30;75.00;;;32.80;;
39676;SDS011;27789;50.840;4.386;2022-12-05T00:34:55;70.68;;;30.73;;
39676;SDS011;27789;50.840;4.386;2022-12-05T00:37:21;78.50;;;32.17;;
39676;SDS011;27789;50.840;4.386;2022-12-05T00:39:47;71.50;;;32.63;;
39676;SDS011;27789;50.840;4.386;2022-12-05T00:42:13;67.10;;;31.83;;
39676;SDS011;27789;50.840;4.386;2022-12-05T00:44:38;72.82;;;31.88;;
39676;SDS011;27789;50.840;4.386;2022-12-05T00:47:04;68.75;;;31.20;;
39676;SDS011;27789;50.840;4.386;2022-12-05T00:49:29;69.18;;;29.73;;
39676;SDS011;27789;50.840;4.386;2022-12-05T00:51:55;67.90;;;30.58;;
39676;SDS011;27789;50.840;4.386;2022-12-05T00:54:21;63.88;;;28.63;;
39676;SDS011;27789;50.840;4.386;2022-12-05T00:56:46;66.85;;;29.55;;
39676;SDS011;27789;50.840;4.386;2022-12-05T00:59:14;66.20;;;28.65;;
39676;SDS011;27789;50.840;4.386;2022-12-05T01:01:42;64.97;;;29.48;;
39676;SDS011;27789;50.840;4.386;2022-12-05T01:04:14;63.63;;;31.40;;
39676;SDS011;27789;50.840;4.386;2022-12-05T01:06:42;73.18;;;28.63;;
39676;SDS011;27789;50.840;4.386;2022-12-05T01:09:10;64.18;;;27.88;;
39676;SDS011;27789;50.840;4.386;2022-12-05T01:11:37;64.20;;;28.80;;
39676;SDS011;27789;50.840;4.386;2022-12-05T01:14:03;67.53;;;29.40;;
39676;SDS011;27789;50.840;4.386;2022-12-05T01:16:33;62.65;;;26.77;;
39676;SDS011;27789;50.840;4.386;2022-12-05T01:19:01;59.85;;;27.48;;
39676;SDS011;27789;50.840;4.386;2022-12-05T01:21:29;61.50;;;28.00;;
39676;SDS011;27789;50.840;4.386;2022-12-05T01:23:55;60.58;;;28.02;;
39676;SDS011;27789;50.840;4.386;2022-12-05T01:26:21;55.90;;;27.48;;
39676;SDS011;27789;50.840;4.386;2022-12-05T01:28:47;59.03;;;28.38;;
39676;SDS011;27789;50.840;4.386;2022-12-05T01:33:56;62.17;;;27.48;;
39676;SDS011;27789;50.840;4.386;2022-12-05T01:36:22;62.50;;;28.73;;
39676;SDS011;27789;50.840;4.386;2022-12-05T01:38:50;65.55;;;28.30;;
39676;SDS011;27789;50.840;4.386;2022-12-05T01:41:17;64.70;;;28.70;;
39676;SDS011;27789;50.840;4.386;2022-12-05T01:43:52;61.03;;;27.33;;
39676;SDS011;27789;50.840;4.386;2022-12-05T01:46:17;63.72;;;29.67;;
39676;SDS011;27789;50.840;4.386;2022-12-05T01:48:43;66.63;;;30.00;;
39676;SDS011;27789;50.840;4.386;2022-12-05T01:51:09;57.60;;;28.02;;
39676;SDS011;27789;50.840;4.386;2022-12-05T01:53:35;63.60;;;27.08;;
39676;SDS011;27789;50.840;4.386;2022-12-05T01:56:01;63.10;;;28.80;;
39676;SDS011;27789;50.840;4.386;2022-12-05T01:58:27;64.18;;;30.38;;
39676;SDS011;27789;50.840;4.386;2022-12-05T02:00:58;72.10;;;30.88;;
39676;SDS011;27789;50.840;4.386;2022-12-05T02:03:24;76.05;;;30.00;;
39676;SDS011;27789;50.840;4.386;2022-12-05T02:05:50;77.30;;;32.05;;
39676;SDS011;27789;50.840;4.386;2022-12-05T02:08:18;67.00;;;29.65;;
39676;SDS011;27789;50.840;4.386;2022-12-05T02:10:51;76.57;;;32.42;;
39676;SDS011;27789;50.840;4.386;2022-12-05T02:18:57;74.00;;;31.67;;
39676;SDS011;27789;50.840;4.386;2022-12-05T02:27:14;79.63;;;34.47;;
39676;SDS011;27789;50.840;4.386;2022-12-05T02:43:11;85.40;;;34.30;;
39676;SDS011;27789;50.840;4.386;2022-12-05T02:45:45;85.07;;;34.13;;
39676;SDS011;27789;50.840;4.386;2022-12-05T02:48:14;89.22;;;34.90;;
39676;SDS011;27789;50.840;4.386;2022-12-05T02:50:42;77.18;;;32.97;;
39676;SDS011;27789;50.840;4.386;2022-12-05T02:53:11;91.07;;;33.97;;
39676;SDS011;27789;50.840;4.386;2022-12-05T02:55:39;85.97;;;34.65;;
39676;SDS011;27789;50.840;4.386;2022-12-05T02:58:08;83.63;;;35.05;;
39676;SDS011;27789;50.840;4.386;2022-12-05T03:00:38;90.78;;;34.03;;
39676;SDS011;27789;50.840;4.386;2022-12-05T03:03:11;87.78;;;34.30;;
39676;SDS011;27789;50.840;4.386;2022-12-05T03:08:24;76.88;;;33.70;;
39676;SDS011;27789;50.840;4.386;2022-12-05T03:11:03;82.38;;;35.38;;
39676;SDS011;27789;50.840;4.386;2022-12-05T03:13:31;75.10;;;33.90;;
39676;SDS011;27789;50.840;4.386;2022-12-05T03:16:14;90.95;;;35.60;;
39676;SDS011;27789;50.840;4.386;2022-12-05T03:18:46;79.20;;;33.08;;
39676;SDS011;27789;50.840;4.386;2022-12-05T03:21:21;83.03;;;35.10;;
39676;SDS011;27789;50.840;4.386;2022-12-05T03:29:32;79.50;;;31.17;;
39676;SDS011;27789;50.840;4.386;2022-12-05T03:32:07;83.60;;;34.05;;
39676;SDS011;27789;50.840;4.386;2022-12-05T03:34:41;83.25;;;34.60;;
39676;SDS011;27789;50.840;4.386;2022-12-05T03:37:27;77.78;;;32.60;;
39676;SDS011;27789;50.840;4.386;2022-12-05T03:40:22;78.35;;;32.67;;
39676;SDS011;27789;50.840;4.386;2022-12-05T03:45:52;76.85;;;31.98;;
39676;SDS011;27789;50.840;4.386;2022-12-05T03:51:01;81.32;;;32.08;;
39676;SDS011;27789;50.840;4.386;2022-12-05T03:53:34;72.93;;;32.17;;
39676;SDS011;27789;50.840;4.386;2022-12-05T03:56:09;71.53;;;31.33;;
39676;SDS011;27789;50.840;4.386;2022-12-05T03:58:40;76.60;;;30.33;;
39676;SDS011;27789;50.840;4.386;2022-12-05T04:01:12;71.13;;;30.23;;
39676;SDS011;27789;50.840;4.386;2022-12-05T04:06:35;69.97;;;28.77;;
39676;SDS011;27789;50.840;4.386;2022-12-05T04:09:08;61.88;;;29.33;;
39676;SDS011;27789;50.840;4.386;2022-12-05T04:11:38;68.03;;;29.20;;
39676;SDS011;27789;50.840;4.386;2022-12-05T04:14:08;60.70;;;29.42;;
39676;SDS011;27789;50.840;4.386;2022-12-05T04:16:42;66.78;;;28.35;;
39676;SDS011;27789;50.840;4.386;2022-12-05T04:22:14;64.72;;;28.90;;
39676;SDS011;27789;50.840;4.386;2022-12-05T04:24:40;68.85;;;29.77;;
39676;SDS011;27789;50.840;4.386;2022-12-05T04:27:19;66.28;;;29.80;;
39676;SDS011;27789;50.840;4.386;2022-12-05T04:32:51;67.57;;;29.80;;
39676;SDS011;27789;50.840;4.386;2022-12-05T04:38:40;61.15;;;26.98;;
39676;SDS011;27789;50.840;4.386;2022-12-05T04:41:13;58.75;;;26.98;;
39676;SDS011;27789;50.840;4.386;2022-12-05T04:43:44;48.83;;;25.20;;
39676;SDS011;27789;50.840;4.386;2022-12-05T04:46:13;53.85;;;28.08;;
39676;SDS011;27789;50.840;4.386;2022-12-05T04:48:40;55.90;;;25.63;;
39676;SDS011;27789;50.840;4.386;2022-12-05T04:51:14;53.75;;;25.88;;
39676;SDS011;27789;50.840;4.386;2022-12-05T04:53:43;57.45;;;27.77;;
39676;SDS011;27789;50.840;4.386;2022-12-05T04:56:10;54.67;;;25.75;;
39676;SDS011;27789;50.840;4.386;2022-12-05T04:58:40;63.22;;;28.90;;
39676;SDS011;27789;50.840;4.386;2022-12-05T05:06:21;58.17;;;26.88;;
39676;SDS011;27789;50.840;4.386;2022-12-05T05:08:50;60.38;;;28.17;;
39676;SDS011;27789;50.840;4.386;2022-12-05T05:13:46;52.38;;;26.38;;
39676;SDS011;27789;50.840;4.386;2022-12-05T05:16:15;51.03;;;26.42;;
39676;SDS011;27789;50.840;4.386;2022-12-05T05:18:46;57.13;;;27.70;;
39676;SDS011;27789;50.840;4.386;2022-12-05T05:21:14;60.90;;;28.33;;
39676;SDS011;27789;50.840;4.386;2022-12-05T05:23:42;61.63;;;28.40;;
39676;SDS011;27789;50.840;4.386;2022-12-05T05:26:08;55.72;;;28.60;;
39676;SDS011;27789;50.840;4.386;2022-12-05T05:28:33;51.17;;;26.55;;
39676;SDS011;27789;50.840;4.386;2022-12-05T05:31:03;67.20;;;31.70;;
39676;SDS011;27789;50.840;4.386;2022-12-05T05:33:30;64.72;;;30.20;;
39676;SDS011;27789;50.840;4.386;2022-12-05T05:35:56;57.58;;;27.02;;
39676;SDS011;27789;50.840;4.386;2022-12-05T05:38:21;66.03;;;30.65;;
39676;SDS011;27789;50.840;4.386;2022-12-05T05:40:47;64.63;;;31.17;;
39676;SDS011;27789;50.840;4.386;2022-12-05T05:43:12;70.78;;;31.30;;
39676;SDS011;27789;50.840;4.386;2022-12-05T05:45:38;72.28;;;31.23;;
39676;SDS011;27789;50.840;4.386;2022-12-05T05:48:04;63.60;;;30.58;;
39676;SDS011;27789;50.840;4.386;2022-12-05T05:50:29;72.18;;;30.25;;
39676;SDS011;27789;50.840;4.386;2022-12-05T05:52:55;58.13;;;29.85;;
39676;SDS011;27789;50.840;4.386;2022-12-05T05:55:20;73.47;;;32.33;;
39676;SDS011;27789;50.840;4.386;2022-12-05T05:57:46;70.60;;;31.80;;
39676;SDS011;27789;50.840;4.386;2022-12-05T06:00:12;66.47;;;29.58;;
39676;SDS011;27789;50.840;4.386;2022-12-05T06:02:39;68.00;;;32.45;;
39676;SDS011;27789;50.840;4.386;2022-12-05T06:05:04;74.10;;;31.45;;
39676;SDS011;27789;50.840;4.386;2022-12-05T06:07:30;72.47;;;32.05;;
39676;SDS011;27789;50.840;4.386;2022-12-05T06:09:56;72.50;;;31.10;;
39676;SDS011;27789;50.840;4.386;2022-12-05T06:12:21;66.13;;;30.13;;
39676;SDS011;27789;50.840;4.386;2022-12-05T06:14:47;64.93;;;30.73;;
39676;SDS011;27789;50.840;4.386;2022-12-05T06:17:14;74.40;;;32.10;;
39676;SDS011;27789;50.840;4.386;2022-12-05T06:19:40;74.50;;;31.27;;
39676;SDS011;27789;50.840;4.386;2022-12-05T06:22:06;67.82;;;30.67;;
39676;SDS011;27789;50.840;4.386;2022-12-05T06:24:32;61.72;;;28.70;;
39676;SDS011;27789;50.840;4.386;2022-12-05T06:26:57;61.75;;;29.23;;
39676;SDS011;27789;50.840;4.386;2022-12-05T06:29:23;70.35;;;31.08;;
39676;SDS011;27789;50.840;4.386;2022-12-05T06:31:48;69.35;;;31.35;;
39676;SDS011;27789;50.840;4.386;2022-12-05T06:34:14;60.15;;;29.92;;
39676;SDS011;27789;50.840;4.386;2022-12-05T06:36:40;66.47;;;30.50;;
39676;SDS011;27789;50.840;4.386;2022-12-05T06:39:05;61.63;;;28.92;;
39676;SDS011;27789;50.840;4.386;2022-12-05T06:41:31;67.57;;;30.67;;
39676;SDS011;27789;50.840;4.386;2022-12-05T06:43:57;69.03;;;31.27;;
39676;SDS011;27789;50.840;4.386;2022-12-05T06:46:23;75.13;;;31.95;;
39676;SDS011;27789;50.840;4.386;2022-12-05T06:48:53;65.13;;;30.40;;
39676;SDS011;27789;50.840;4.386;2022-12-05T06:51:20;69.45;;;31.77;;
39676;SDS011;27789;50.840;4.386;2022-12-05T06:53:46;64.35;;;29.70;;
39676;SDS011;27789;50.840;4.386;2022-12-05T06:56:14;73.90;;;31.30;;
39676;SDS011;27789;50.840;4.386;2022-12-05T06:58:41;64.03;;;29.92;;
39676;SDS011;27789;50.840;4.386;2022-12-05T07:01:10;62.38;;;29.42;;
39676;SDS011;27789;50.840;4.386;2022-12-05T07:03:50;67.05;;;28.73;;
39676;SDS011;27789;50.840;4.386;2022-12-05T07:06:16;70.57;;;30.67;;
39676;SDS011;27789;50.840;4.386;2022-12-05T07:08:41;60.08;;;29.20;;
39676;SDS011;27789;50.840;4.386;2022-12-05T07:11:07;65.25;;;28.95;;
39676;SDS011;27789;50.840;4.386;2022-12-05T07:13:33;64.22;;;28.83;;
39676;SDS011;27789;50.840;4.386;2022-12-05T07:15:59;68.18;;;28.95;;
39676;SDS011;27789;50.840;4.386;2022-12-05T07:18:25;64.28;;;29.73;;
39676;SDS011;27789;50.840;4.386;2022-12-05T07:20:57;61.05;;;29.10;;
39676;SDS011;27789;50.840;4.386;2022-12-05T07:23:24;62.83;;;28.30;;
39676;SDS011;27789;50.840;4.386;2022-12-05T07:25:50;56.67;;;26.92;;
39676;SDS011;27789;50.840;4.386;2022-12-05T07:28:16;56.72;;;27.13;;
39676;SDS011;27789;50.840;4.386;2022-12-05T07:30:42;63.42;;;28.52;;
39676;SDS011;27789;50.840;4.386;2022-12-05T07:33:11;59.95;;;29.60;;
39676;SDS011;27789;50.840;4.386;2022-12-05T07:35:36;69.88;;;29.65;;
39676;SDS011;27789;50.840;4.386;2022-12-05T07:38:05;58.35;;;29.38;;
39676;SDS011;27789;50.840;4.386;2022-12-05T07:40:30;59.22;;;27.60;;
39676;SDS011;27789;50.840;4.386;2022-12-05T07:42:56;60.80;;;27.45;;
39676;SDS011;27789;50.840;4.386;2022-12-05T07:45:22;62.50;;;30.27;;
39676;SDS011;27789;50.840;4.386;2022-12-05T07:47:48;67.25;;;29.58;;
39676;SDS011;27789;50.840;4.386;2022-12-05T07:50:17;56.92;;;28.40;;
39676;SDS011;27789;50.840;4.386;2022-12-05T07:52:42;60.83;;;29.05;;
39676;SDS011;27789;50.840;4.386;2022-12-05T07:55:08;70.88;;;29.80;;
39676;SDS011;27789;50.840;4.386;2022-12-05T07:57:34;62.95;;;28.98;;
39676;SDS011;27789;50.840;4.386;2022-12-05T07:59:59;71.35;;;32.35;;
39676;SDS011;27789;50.840;4.386;2022-12-05T08:02:25;73.45;;;29.40;;
39676;SDS011;27789;50.840;4.386;2022-12-05T08:04:50;76.07;;;30.85;;
39676;SDS011;27789;50.840;4.386;2022-12-05T08:07:16;67.55;;;32.13;;
39676;SDS011;27789;50.840;4.386;2022-12-05T08:09:42;69.15;;;30.00;;
39676;SDS011;27789;50.840;4.386;2022-12-05T08:12:10;68.53;;;30.05;;
39676;SDS011;27789;50.840;4.386;2022-12-05T08:14:38;60.30;;;29.17;;
39676;SDS011;27789;50.840;4.386;2022-12-05T08:17:04;61.65;;;27.77;;
39676;SDS011;27789;50.840;4.386;2022-12-05T08:19:29;63.35;;;29.70;;
39676;SDS011;27789;50.840;4.386;2022-12-05T08:21:55;54.60;;;28.83;;
39676;SDS011;27789;50.840;4.386;2022-12-05T08:24:21;59.58;;;25.60;;
39676;SDS011;27789;50.840;4.386;2022-12-05T08:26:46;53.67;;;26.52;;
39676;SDS011;27789;50.840;4.386;2022-12-05T08:29:12;58.55;;;27.33;;
39676;SDS011;27789;50.840;4.386;2022-12-05T08:31:43;51.60;;;26.27;;
39676;SDS011;27789;50.840;4.386;2022-12-05T08:34:11;61.13;;;26.98;;
39676;SDS011;27789;50.840;4.386;2022-12-05T08:36:38;58.72;;;28.10;;
39676;SDS011;27789;50.840;4.386;2022-12-05T08:39:05;56.70;;;26.02;;
39676;SDS011;27789;50.840;4.386;2022-12-05T08:41:32;49.50;;;26.13;;
39676;SDS011;27789;50.840;4.386;2022-12-05T08:44:02;49.17;;;25.70;;
39676;SDS011;27789;50.840;4.386;2022-12-05T08:46:33;59.23;;;26.47;;
39676;SDS011;27789;50.840;4.386;2022-12-05T08:49:01;52.70;;;25.17;;
39676;SDS011;27789;50.840;4.386;2022-12-05T08:51:27;53.17;;;24.67;;
39676;SDS011;27789;50.840;4.386;2022-12-05T08:53:53;44.25;;;22.75;;
39676;SDS011;27789;50.840;4.386;2022-12-05T08:56:20;49.65;;;25.33;;
39676;SDS011;27789;50.840;4.386;2022-12-05T08:58:46;46.80;;;24.63;;
39676;SDS011;27789;50.840;4.386;2022-12-05T09:01:13;51.67;;;25.38;;
39676;SDS011;27789;50.840;4.386;2022-12-05T09:03:42;44.00;;;22.35;;
39676;SDS011;27789;50.840;4.386;2022-12-05T09:08:37;41.83;;;22.15;;
39676;SDS011;27789;50.840;4.386;2022-12-05T09:11:06;43.80;;;21.83;;
39676;SDS011;27789;50.840;4.386;2022-12-05T09:13:33;40.05;;;21.67;;
39676;SDS011;27789;50.840;4.386;2022-12-05T09:16:03;42.97;;;22.65;;
39676;SDS011;27789;50.840;4.386;2022-12-05T09:18:33;46.50;;;24.48;;
39676;SDS011;27789;50.840;4.386;2022-12-05T09:21:10;43.17;;;23.13;;
39676;SDS011;27789;50.840;4.386;2022-12-05T09:23:37;45.60;;;25.15;;
39676;SDS011;27789;50.840;4.386;2022-12-05T09:26:03;46.58;;;22.88;;
39676;SDS011;27789;50.840;4.386;2022-12-05T09:28:30;42.40;;;22.65;;
39676;SDS011;27789;50.840;4.386;2022-12-05T09:31:00;46.55;;;22.77;;
39676;SDS011;27789;50.840;4.386;2022-12-05T09:33:28;50.05;;;25.40;;
39676;SDS011;27789;50.840;4.386;2022-12-05T09:35:55;40.58;;;23.50;;
39676;SDS011;27789;50.840;4.386;2022-12-05T09:38:21;47.10;;;25.10;;
39676;SDS011;27789;50.840;4.386;2022-12-05T09:40:59;36.65;;;21.80;;
39676;SDS011;27789;50.840;4.386;2022-12-05T09:46:38;41.00;;;20.33;;
39676;SDS011;27789;50.840;4.386;2022-12-05T09:49:14;35.60;;;19.13;;
39676;SDS011;27789;50.840;4.386;2022-12-05T09:51:41;34.70;;;18.88;;
39676;SDS011;27789;50.840;4.386;2022-12-05T09:54:10;37.15;;;18.67;;
39676;SDS011;27789;50.840;4.386;2022-12-05T09:56:37;29.23;;;18.10;;
39676;SDS011;27789;50.840;4.386;2022-12-05T09:59:03;29.90;;;17.70;;
39676;SDS011;27789;50.840;4.386;2022-12-05T10:17:56;23.33;;;13.88;;
39676;SDS011;27789;50.840;4.386;2022-12-05T10:20:37;24.50;;;15.60;;
39676;SDS011;27789;50.840;4.386;2022-12-05T10:25:58;25.33;;;15.10;;
39676;SDS011;27789;50.840;4.386;2022-12-05T10:28:32;24.45;;;15.13;;
39676;SDS011;27789;50.840;4.386;2022-12-05T10:31:06;27.63;;;15.73;;
39676;SDS011;27789;50.840;4.386;2022-12-05T10:33:39;24.83;;;15.70;;
39676;SDS011;27789;50.840;4.386;2022-12-05T10:36:11;26.08;;;16.60;;
39676;SDS011;27789;50.840;4.386;2022-12-05T10:38:37;22.10;;;15.02;;
39676;SDS011;27789;50.840;4.386;2022-12-05T10:41:08;26.23;;;16.17;;
39676;SDS011;27789;50.840;4.386;2022-12-05T10:43:37;25.35;;;16.75;;
39676;SDS011;27789;50.840;4.386;2022-12-05T10:46:06;30.30;;;17.23;;
39676;SDS011;27789;50.840;4.386;2022-12-05T10:48:39;25.45;;;15.18;;
39676;SDS011;27789;50.840;4.386;2022-12-05T10:51:08;26.38;;;16.77;;
39676;SDS011;27789;50.840;4.386;2022-12-05T10:59:00;20.83;;;13.65;;
39676;SDS011;27789;50.840;4.386;2022-12-05T11:01:27;21.50;;;13.55;;
39676;SDS011;27789;50.840;4.386;2022-12-05T11:04:00;24.08;;;15.18;;
39676;SDS011;27789;50.840;4.386;2022-12-05T11:06:34;22.00;;;14.00;;
39676;SDS011;27789;50.840;4.386;2022-12-05T11:11:29;19.98;;;12.77;;
39676;SDS011;27789;50.840;4.386;2022-12-05T11:16:54;13.60;;;10.65;;
39676;SDS011;27789;50.840;4.386;2022-12-05T11:19:23;16.33;;;11.65;;
39676;SDS011;27789;50.840;4.386;2022-12-05T11:21:53;18.17;;;11.88;;
39676;SDS011;27789;50.840;4.386;2022-12-05T11:26:53;19.95;;;12.82;;
39676;SDS011;27789;50.840;4.386;2022-12-05T11:32:04;19.13;;;13.18;;
39676;SDS011;27789;50.840;4.386;2022-12-05T11:34:51;21.75;;;15.32;;
39676;SDS011;27789;50.840;4.386;2022-12-05T11:37:22;24.42;;;14.90;;
39676;SDS011;27789;50.840;4.386;2022-12-05T11:39:53;22.08;;;14.25;;
39676;SDS011;27789;50.840;4.386;2022-12-05T11:51:20;18.52;;;12.82;;
39676;SDS011;27789;50.840;4.386;2022-12-05T12:12:27;22.15;;;12.98;;
39676;SDS011;27789;50.840;4.386;2022-12-05T12:20:22;18.88;;;12.80;;
39676;SDS011;27789;50.840;4.386;2022-12-05T12:47:16;25.92;;;15.88;;
39676;SDS011;27789;50.840;4.386;2022-12-05T12:58:08;25.42;;;16.00;;
39676;SDS011;27789;50.840;4.386;2022-12-05T13:06:01;27.65;;;15.95;;
39676;SDS011;27789;50.840;4.386;2022-12-05T13:08:43;28.33;;;17.10;;
39676;SDS011;27789;50.840;4.386;2022-12-05T13:11:21;31.02;;;16.45;;
39676;SDS011;27789;50.840;4.386;2022-12-05T13:13:50;27.63;;;16.98;;
39676;SDS011;27789;50.840;4.386;2022-12-05T13:16:25;27.65;;;16.63;;
39676;SDS011;27789;50.840;4.386;2022-12-05T13:18:54;24.67;;;15.93;;
39676;SDS011;27789;50.840;4.386;2022-12-05T13:21:21;25.23;;;16.13;;
39676;SDS011;27789;50.840;4.386;2022-12-05T13:23:49;20.88;;;14.65;;
39676;SDS011;27789;50.840;4.386;2022-12-05T13:26:18;24.08;;;14.18;;
39676;SDS011;27789;50.840;4.386;2022-12-05T13:28:51;22.02;;;14.00;;
39676;SDS011;27789;50.840;4.386;2022-12-05T13:31:33;19.90;;;14.90;;
39676;SDS011;27789;50.840;4.386;2022-12-05T13:34:05;22.60;;;13.85;;
39676;SDS011;27789;50.840;4.386;2022-12-05T13:36:51;20.38;;;14.18;;
39676;SDS011;27789;50.840;4.386;2022-12-05T13:39:30;20.25;;;14.15;;
39676;SDS011;27789;50.840;4.386;2022-12-05T13:42:18;20.58;;;14.48;;
39676;SDS011;27789;50.840;4.386;2022-12-05T13:52:31;20.70;;;13.45;;
39676;SDS011;27789;50.840;4.386;2022-12-05T13:57:54;18.63;;;13.30;;
39676;SDS011;27789;50.840;4.386;2022-12-05T14:00:42;22.17;;;14.75;;
39676;SDS011;27789;50.840;4.386;2022-12-05T14:03:52;23.02;;;14.13;;
39676;SDS011;27789;50.840;4.386;2022-12-05T14:05:59;23.58;;;15.80;;
39676;SDS011;27789;50.840;4.386;2022-12-05T14:21:23;24.33;;;15.35;;
39676;SDS011;27789;50.840;4.386;2022-12-05T14:32:36;29.17;;;17.17;;
39676;SDS011;27789;50.840;4.386;2022-12-05T14:35:11;28.10;;;16.73;;
39676;SDS011;27789;50.840;4.386;2022-12-05T14:45:30;24.48;;;14.20;;
39676;SDS011;27789;50.840;4.386;2022-12-05T14:50:52;22.42;;;13.98;;
39676;SDS011;27789;50.840;4.386;2022-12-05T14:58:24;25.83;;;16.17;;
39676;SDS011;27789;50.840;4.386;2022-12-05T15:03:32;29.17;;;18.02;;
39676;SDS011;27789;50.840;4.386;2022-12-05T15:06:03;24.65;;;16.58;;
39676;SDS011;27789;50.840;4.386;2022-12-05T15:08:40;25.88;;;18.13;;
39676;SDS011;27789;50.840;4.386;2022-12-05T15:11:16;32.33;;;19.63;;
39676;SDS011;27789;50.840;4.386;2022-12-05T15:13:59;32.90;;;18.55;;
39676;SDS011;27789;50.840;4.386;2022-12-05T15:16:34;33.20;;;19.67;;
39676;SDS011;27789;50.840;4.386;2022-12-05T15:19:05;34.80;;;20.98;;
39676;SDS011;27789;50.840;4.386;2022-12-05T15:21:40;37.00;;;20.33;;
39676;SDS011;27789;50.840;4.386;2022-12-05T15:24:13;37.08;;;20.52;;
39676;SDS011;27789;50.840;4.386;2022-12-05T15:31:47;41.97;;;24.40;;
39676;SDS011;27789;50.840;4.386;2022-12-05T15:39:29;47.42;;;23.25;;
39676;SDS011;27789;50.840;4.386;2022-12-05T15:42:14;49.05;;;24.25;;
39676;SDS011;27789;50.840;4.386;2022-12-05T15:44:40;53.10;;;26.23;;
39676;SDS011;27789;50.840;4.386;2022-12-05T15:47:14;45.78;;;25.25;;
39676;SDS011;27789;50.840;4.386;2022-12-05T15:49:47;46.70;;;25.77;;
39676;SDS011;27789;50.840;4.386;2022-12-05T15:54:57;47.30;;;24.88;;
39676;SDS011;27789;50.840;4.386;2022-12-05T15:57:31;48.80;;;27.80;;
39676;SDS011;27789;50.840;4.386;2022-12-05T16:00:03;46.55;;;25.73;;
39676;SDS011;27789;50.840;4.386;2022-12-05T16:05:23;48.97;;;27.40;;
39676;SDS011;27789;50.840;4.386;2022-12-05T16:07:53;53.88;;;27.58;;
39676;SDS011;27789;50.840;4.386;2022-12-05T16:10:19;52.17;;;27.98;;
39676;SDS011;27789;50.840;4.386;2022-12-05T16:12:46;52.28;;;28.02;;
39676;SDS011;27789;50.840;4.386;2022-12-05T16:15:14;55.05;;;29.67;;
39676;SDS011;27789;50.840;4.386;2022-12-05T16:17:46;55.60;;;26.90;;
39676;SDS011;27789;50.840;4.386;2022-12-05T16:22:42;66.25;;;31.10;;
39676;SDS011;27789;50.840;4.386;2022-12-05T16:25:13;56.40;;;28.30;;
39676;SDS011;27789;50.840;4.386;2022-12-05T16:27:41;63.20;;;31.10;;
39676;SDS011;27789;50.840;4.386;2022-12-05T16:32:36;63.47;;;30.48;;
39676;SDS011;27789;50.840;4.386;2022-12-05T16:43:16;62.17;;;30.60;;
39676;SDS011;27789;50.840;4.386;2022-12-05T16:45:45;63.90;;;31.45;;
39676;SDS011;27789;50.840;4.386;2022-12-05T16:51:13;63.42;;;29.05;;
39676;SDS011;27789;50.840;4.386;2022-12-05T16:56:21;51.88;;;27.70;;
39676;SDS011;27789;50.840;4.386;2022-12-05T16:58:49;58.75;;;30.15;;
39676;SDS011;27789;50.840;4.386;2022-12-05T17:01:15;59.92;;;29.05;;
39676;SDS011;27789;50.840;4.386;2022-12-05T17:03:43;60.65;;;30.02;;
39676;SDS011;27789;50.840;4.386;2022-12-05T17:06:09;53.70;;;28.80;;
39676;SDS011;27789;50.840;4.386;2022-12-05T17:08:35;55.92;;;29.33;;
39676;SDS011;27789;50.840;4.386;2022-12-05T17:11:01;57.03;;;29.08;;
39676;SDS011;27789;50.840;4.386;2022-12-05T17:13:27;55.50;;;29.08;;
39676;SDS011;27789;50.840;4.386;2022-12-05T17:15:54;53.20;;;29.05;;
39676;SDS011;27789;50.840;4.386;2022-12-05T17:18:20;54.08;;;28.98;;
39676;SDS011;27789;50.840;4.386;2022-12-05T17:20:53;52.35;;;29.42;;
39676;SDS011;27789;50.840;4.386;2022-12-05T17:23:20;55.92;;;29.10;;
39676;SDS011;27789;50.840;4.386;2022-12-05T17:25:50;54.72;;;27.83;;
39676;SDS011;27789;50.840;4.386;2022-12-05T17:28:18;51.15;;;27.27;;
39676;SDS011;27789;50.840;4.386;2022-12-05T17:30:44;48.65;;;26.63;;
39676;SDS011;27789;50.840;4.386;2022-12-05T17:33:10;50.15;;;27.65;;
39676;SDS011;27789;50.840;4.386;2022-12-05T17:35:37;48.72;;;27.55;;
39676;SDS011;27789;50.840;4.386;2022-12-05T17:38:03;55.40;;;29.02;;
39676;SDS011;27789;50.840;4.386;2022-12-05T17:40:30;53.63;;;29.80;;
39676;SDS011;27789;50.840;4.386;2022-12-05T17:42:56;56.53;;;31.73;;
39676;SDS011;27789;50.840;4.386;2022-12-05T17:45:22;62.75;;;32.30;;
39676;SDS011;27789;50.840;4.386;2022-12-05T17:47:49;59.75;;;32.22;;
39676;SDS011;27789;50.840;4.386;2022-12-05T17:50:16;57.20;;;30.05;;
39676;SDS011;27789;50.840;4.386;2022-12-05T17:52:43;59.67;;;31.83;;
39676;SDS011;27789;50.840;4.386;2022-12-05T17:55:30;57.60;;;30.35;;
39676;SDS011;27789;50.840;4.386;2022-12-05T17:57:55;58.28;;;30.90;;
39676;SDS011;27789;50.840;4.386;2022-12-05T18:00:21;54.63;;;31.05;;
39676;SDS011;27789;50.840;4.386;2022-12-05T18:02:48;52.03;;;29.65;;
39676;SDS011;27789;50.840;4.386;2022-12-05T18:05:16;55.22;;;30.98;;
39676;SDS011;27789;50.840;4.386;2022-12-05T18:07:42;57.20;;;29.10;;
39676;SDS011;27789;50.840;4.386;2022-12-05T18:10:10;55.95;;;30.20;;
39676;SDS011;27789;50.840;4.386;2022-12-05T18:12:38;50.80;;;28.58;;
39676;SDS011;27789;50.840;4.386;2022-12-05T18:15:04;47.38;;;28.38;;
39676;SDS011;27789;50.840;4.386;2022-12-05T18:17:30;48.97;;;27.83;;
39676;SDS011;27789;50.840;4.386;2022-12-05T18:19:55;53.00;;;30.45;;
39676;SDS011;27789;50.840;4.386;2022-12-05T18:22:22;52.10;;;30.10;;
39676;SDS011;27789;50.840;4.386;2022-12-05T18:24:49;57.22;;;30.60;;
39676;SDS011;27789;50.840;4.386;2022-12-05T18:27:15;49.85;;;28.73;;
39676;SDS011;27789;50.840;4.386;2022-12-05T18:29:41;49.33;;;29.13;;
39676;SDS011;27789;50.840;4.386;2022-12-05T18:32:06;48.53;;;28.60;;
39676;SDS011;27789;50.840;4.386;2022-12-05T18:34:32;50.25;;;28.27;;
39676;SDS011;27789;50.840;4.386;2022-12-05T18:36:57;57.30;;;29.17;;
39676;SDS011;27789;50.840;4.386;2022-12-05T18:39:23;53.83;;;30.25;;
39676;SDS011;27789;50.840;4.386;2022-12-05T18:41:49;56.30;;;30.85;;
39676;SDS011;27789;50.840;4.386;2022-12-05T18:44:14;53.30;;;29.10;;
39676;SDS011;27789;50.840;4.386;2022-12-05T18:46:40;49.72;;;28.17;;
39676;SDS011;27789;50.840;4.386;2022-12-05T18:49:06;54.13;;;30.35;;